createdAt,value
2023-01-29T00:00:31.271Z,61.39
2023-01-29T00:03:37.221Z,60.67
2023-01-29T00:06:41.996Z,61.00
2023-01-29T00:09:46.951Z,60.70
2023-01-29T00:12:50.991Z,60.78
2023-01-29T00:16:02.733Z,61.13
2023-01-29T00:19:06.907Z,60.94
2023-01-29T00:22:10.457Z,60.74
2023-01-29T00:25:14.306Z,60.50
2023-01-29T00:28:25.441Z,60.04
2023-01-29T00:31:29.783Z,59.97
2023-01-29T00:34:34.538Z,59.83
2023-01-29T00:37:41.763Z,59.79
2023-01-29T00:41:05.476Z,59.66
2023-01-29T00:44:28.024Z,59.25
2023-01-29T00:47:31.811Z,59.27
2023-01-29T00:50:35.684Z,58.84
2023-01-29T00:53:39.799Z,58.75
2023-01-29T00:56:47.862Z,59.05
2023-01-29T00:59:52.695Z,58.70
2023-01-29T01:03:07.619Z,57.92
2023-01-29T01:06:12.455Z,57.58
2023-01-29T01:09:39.724Z,57.08
2023-01-29T01:12:53.114Z,56.66
2023-01-29T01:15:57.362Z,55.69
2023-01-29T01:19:01.889Z,55.50
2023-01-29T01:22:06.255Z,54.99
2023-01-29T01:25:10.010Z,55.24
2023-01-29T01:28:14.941Z,55.27
2023-01-29T01:31:23.877Z,55.58
2023-01-29T01:34:27.959Z,55.08
2023-01-29T01:37:39.250Z,55.03
2023-01-29T01:40:52.206Z,54.99
2023-01-29T01:44:01.471Z,54.05
2023-01-29T01:47:07.799Z,54.78
2023-01-29T01:50:19.943Z,54.29
2023-01-29T01:53:59.528Z,53.12
2023-01-29T01:57:53.028Z,52.79
2023-01-29T02:01:06.498Z,52.65
2023-01-29T02:08:11.663Z,53.28
2023-01-29T02:11:16.037Z,53.38
2023-01-29T02:18:09.985Z,53.00
2023-01-29T02:22:12.722Z,53.77
2023-01-29T02:25:56.873Z,53.93
2023-01-29T02:29:24.431Z,53.87
2023-01-29T02:33:02.018Z,54.02
2023-01-29T02:36:20.091Z,54.34
2023-01-29T02:39:43.023Z,54.90
2023-01-29T02:43:18.999Z,55.14
2023-01-29T02:46:41.377Z,54.82
2023-01-29T02:54:31.522Z,54.63
2023-01-29T03:01:07.049Z,53.98
2023-01-29T03:38:06.569Z,52.49
2023-01-29T03:49:42.996Z,53.07
2023-01-29T03:57:22.405Z,52.12
2023-01-29T04:01:11.418Z,52.03
2023-01-29T04:04:36.662Z,52.25
2023-01-29T04:07:50.629Z,51.52
2023-01-29T04:10:58.359Z,51.10
2023-01-29T04:14:16.402Z,51.25
2023-01-29T04:17:37.669Z,50.86
2023-01-29T04:20:55.015Z,50.73
2023-01-29T04:32:17.243Z,48.79
2023-01-29T04:35:53.471Z,48.80
2023-01-29T04:39:47.518Z,48.41
2023-01-29T04:47:38.534Z,47.96
2023-01-29T04:55:36.779Z,45.90
2023-01-29T05:02:17.413Z,45.42
2023-01-29T05:05:25.322Z,45.68
2023-01-29T05:08:34.698Z,45.58
2023-01-29T05:15:04.557Z,44.60
2023-01-29T05:18:10.818Z,43.82
2023-01-29T05:21:16.148Z,43.42
2023-01-29T05:28:10.736Z,44.75
2023-01-29T05:31:15.336Z,44.40
2023-01-29T05:34:19.664Z,44.03
2023-01-29T05:37:28.050Z,43.38
2023-01-29T05:50:28.886Z,42.85
2023-01-29T05:53:41.925Z,40.88
2023-01-29T05:56:53.116Z,40.43
2023-01-29T05:59:59.380Z,40.38
2023-01-29T06:03:07.444Z,41.07
2023-01-29T06:09:39.458Z,39.88
2023-01-29T06:12:54.701Z,39.46
2023-01-29T06:19:27.442Z,40.11
2023-01-29T06:39:04.257Z,39.08
2023-01-29T06:42:21.073Z,39.02
2023-01-29T06:49:01.363Z,38.47
2023-01-29T06:55:37.590Z,39.35
2023-01-29T06:58:51.988Z,39.68
2023-01-29T07:05:19.422Z,40.54
2023-01-29T07:19:07.772Z,39.12
2023-01-29T07:22:16.041Z,40.25
2023-01-29T07:25:35.781Z,39.82
2023-01-29T07:28:47.694Z,39.83
2023-01-29T07:31:52.340Z,40.62
2023-01-29T07:34:59.229Z,41.79
2023-01-29T07:41:22.692Z,41.60
2023-01-29T07:47:51.062Z,41.00
2023-01-29T07:51:06.714Z,40.19
2023-01-29T07:54:11.885Z,39.48
2023-01-29T07:57:21.935Z,39.94
2023-01-29T08:00:31.773Z,39.73
2023-01-29T08:06:56.398Z,39.50
2023-01-29T08:10:02.790Z,38.99
2023-01-29T08:13:12.207Z,38.60
2023-01-29T08:26:37.289Z,40.15
2023-01-29T08:29:42.878Z,40.75
2023-01-29T08:39:34.566Z,41.12
2023-01-29T08:42:52.169Z,41.76
2023-01-29T08:46:02.406Z,42.79
2023-01-29T08:49:07.427Z,43.25
2023-01-29T08:52:28.629Z,43.76
2023-01-29T08:55:36.361Z,43.88
2023-01-29T09:09:17.643Z,46.04
2023-01-29T09:26:26.686Z,46.43
2023-01-29T09:29:35.853Z,46.77
2023-01-29T09:32:54.669Z,46.73
2023-01-29T09:36:04.450Z,47.01
2023-01-29T09:39:09.829Z,47.12
2023-01-29T09:42:26.772Z,47.23
2023-01-29T09:45:33.439Z,47.56
2023-01-29T09:48:38.360Z,47.81
2023-01-29T09:51:56.551Z,47.94
2023-01-29T09:55:07.217Z,48.00
2023-01-29T09:58:27.970Z,47.95
2023-01-29T10:02:03.947Z,48.37
2023-01-29T10:05:42.746Z,48.71
2023-01-29T10:09:05.356Z,48.68
2023-01-29T10:12:34.021Z,48.87
2023-01-29T10:16:07.616Z,49.57
2023-01-29T10:19:40.066Z,49.65
2023-01-29T10:30:06.247Z,49.86
2023-01-29T10:40:22.490Z,51.03
2023-01-29T10:47:33.727Z,52.50
2023-01-29T10:51:02.918Z,52.91
2023-01-29T10:54:33.894Z,53.54
2023-01-29T11:04:33.115Z,55.07
2023-01-29T11:07:38.118Z,54.68
2023-01-29T11:14:48.855Z,54.79
2023-01-29T11:18:22.785Z,54.63
2023-01-29T11:21:28.909Z,54.96
2023-01-29T11:24:35.617Z,55.18
2023-01-29T11:27:46.935Z,55.33
2023-01-29T11:30:54.916Z,55.44
2023-01-29T11:34:29.543Z,55.61
2023-01-29T11:37:39.221Z,55.91
2023-01-29T11:40:43.783Z,56.42
2023-01-29T11:43:50.534Z,56.88
2023-01-29T11:50:25.396Z,56.81
2023-01-29T11:53:42.828Z,56.46
2023-01-29T12:00:30.211Z,57.26
2023-01-29T12:10:40.023Z,58.37
2023-01-29T12:13:57.435Z,58.38
2023-01-29T12:17:11.021Z,58.04
2023-01-29T12:20:27.344Z,58.38
2023-01-29T12:31:19.468Z,58.35
2023-01-29T12:34:41.721Z,58.33
2023-01-29T12:38:06.013Z,58.21
2023-01-29T12:41:35.210Z,58.47
2023-01-29T12:44:55.772Z,58.07
2023-01-29T12:58:43.128Z,58.28
2023-01-29T13:01:57.947Z,58.34
2023-01-29T13:05:37.653Z,58.56
2023-01-29T13:08:54.808Z,58.66
2023-01-29T13:12:19.660Z,58.52
2023-01-29T13:15:40.316Z,58.46
2023-01-29T13:19:03.902Z,58.27
2023-01-29T13:22:21.844Z,58.51
2023-01-29T13:28:47.429Z,59.75
2023-01-29T13:32:15.051Z,59.80
2023-01-29T13:38:45.754Z,60.47
2023-01-29T13:41:52.058Z,60.04
2023-01-29T13:45:03.054Z,60.17
2023-01-29T13:48:39.174Z,60.53
2023-01-29T13:51:45.100Z,60.74
2023-01-29T13:55:29.065Z,60.28
2023-01-29T13:58:37.201Z,60.03
2023-01-29T14:01:52.496Z,59.90
2023-01-29T14:05:50.441Z,60.45
2023-01-29T14:09:03.057Z,60.62
2023-01-29T14:12:33.826Z,61.03
2023-01-29T14:15:45.121Z,60.84
2023-01-29T14:19:05.388Z,60.90
2023-01-29T14:22:24.537Z,60.26
2023-01-29T14:25:42.779Z,60.67
2023-01-29T14:29:16.511Z,60.89
2023-01-29T14:32:56.761Z,60.14
2023-01-29T14:36:07.685Z,60.24
2023-01-29T14:46:40.939Z,61.86
2023-01-29T14:54:37.265Z,61.37
2023-01-29T14:57:42.174Z,61.08
2023-01-29T15:01:01.422Z,61.54
2023-01-29T15:07:51.300Z,62.62
2023-01-29T15:18:14.836Z,63.62
2023-01-29T15:21:20.102Z,63.04
2023-01-29T15:24:32.727Z,62.36
2023-01-29T15:27:37.627Z,62.18
2023-01-29T15:30:44.852Z,61.50
2023-01-29T15:33:55.844Z,62.07
2023-01-29T15:37:06.924Z,62.15
2023-01-29T15:40:18.923Z,62.75
2023-01-29T15:43:34.667Z,62.73
2023-01-29T15:46:41.643Z,62.62
2023-01-29T15:49:48.547Z,62.76
2023-01-29T15:52:59.543Z,63.21
2023-01-29T16:02:42.891Z,63.54
2023-01-29T16:05:47.447Z,62.55
2023-01-29T16:09:00.315Z,62.37
2023-01-29T16:12:05.035Z,61.44
2023-01-29T16:15:21.983Z,61.56
2023-01-29T16:18:36.494Z,61.60
2023-01-29T16:21:48.515Z,62.02
2023-01-29T16:24:55.568Z,62.88
2023-01-29T16:28:00.979Z,63.60
2023-01-29T16:31:05.830Z,64.66
2023-01-29T16:34:17.787Z,64.97
2023-01-29T16:37:33.547Z,64.64
2023-01-29T16:40:39.678Z,64.89
2023-01-29T16:43:58.943Z,64.08
2023-01-29T16:47:26.908Z,64.67
2023-01-29T16:50:54.008Z,63.89
2023-01-29T16:54:19.958Z,62.65
2023-01-29T16:57:34.032Z,61.70
2023-01-29T17:00:38.411Z,62.01
2023-01-29T17:03:50.459Z,61.78
2023-01-29T17:07:00.114Z,61.60
2023-01-29T17:10:06.725Z,61.76
2023-01-29T17:13:20.762Z,61.50
2023-01-29T17:16:36.668Z,61.71
2023-01-29T17:19:42.114Z,61.57
2023-01-29T17:22:48.713Z,62.37
2023-01-29T17:26:00.482Z,62.00
2023-01-29T17:29:08.696Z,62.03
2023-01-29T17:32:16.916Z,61.79
2023-01-29T17:35:23.413Z,61.88
2023-01-29T17:38:27.907Z,61.45
2023-01-29T17:41:33.696Z,61.05
2023-01-29T17:47:56.662Z,60.98
2023-01-29T17:51:08.672Z,62.12
2023-01-29T18:00:46.687Z,62.04
2023-01-29T18:03:51.763Z,61.73
2023-01-29T18:07:02.015Z,61.73
2023-01-29T18:10:09.035Z,61.75
2023-01-29T18:13:21.593Z,62.02
2023-01-29T18:19:46.508Z,61.50
2023-01-29T18:22:54.804Z,61.84
2023-01-29T18:25:59.210Z,61.83
2023-01-29T18:35:38.748Z,62.77
2023-01-29T18:38:46.566Z,62.38
2023-01-29T18:41:52.960Z,61.89
2023-01-29T18:44:56.693Z,61.76
2023-01-29T18:48:01.996Z,61.71
2023-01-29T18:51:06.726Z,61.57
2023-01-29T18:54:15.384Z,61.64
2023-01-29T18:58:25.067Z,61.71
2023-01-29T19:00:44.049Z,61.17
2023-01-29T19:10:24.158Z,61.89
2023-01-29T19:13:28.311Z,59.11
2023-01-29T19:16:34.269Z,59.11
2023-01-29T19:19:38.365Z,59.01
2023-01-29T19:22:45.948Z,58.59
2023-01-29T19:25:51.701Z,61.30
2023-01-29T19:29:02.389Z,62.04
2023-01-29T19:32:06.447Z,61.73
2023-01-29T19:35:16.177Z,61.85
2023-01-29T19:38:22.219Z,61.25
2023-01-29T19:41:28.347Z,61.57
2023-01-29T19:44:32.544Z,62.08
2023-01-29T19:47:44.323Z,62.97
2023-01-29T19:54:14.953Z,61.48
2023-01-29T19:57:19.092Z,61.88
2023-01-29T20:00:23.531Z,61.89
2023-01-29T20:03:28.292Z,61.38
2023-01-29T20:06:32.479Z,61.35
2023-01-29T20:09:36.201Z,60.48
2023-01-29T20:12:41.875Z,59.41
2023-01-29T20:15:55.091Z,59.51
2023-01-29T20:22:20.570Z,61.24
2023-01-29T20:25:31.711Z,61.35
2023-01-29T20:28:37.084Z,61.76
2023-01-29T20:31:40.469Z,61.75
2023-01-29T20:34:48.761Z,61.69
2023-01-29T20:37:53.908Z,61.53
2023-01-29T20:41:16.470Z,61.71
2023-01-29T20:44:27.666Z,61.07
2023-01-29T20:47:32.403Z,60.53
2023-01-29T20:50:39.830Z,60.32
2023-01-29T20:53:47.647Z,58.78
2023-01-29T21:00:12.108Z,56.25
2023-01-29T21:03:18.868Z,56.64
2023-01-29T21:09:54.227Z,56.24
2023-01-29T21:13:01.899Z,55.81
2023-01-29T21:16:06.161Z,55.40
2023-01-29T21:19:11.533Z,56.02
2023-01-29T21:22:17.911Z,56.61
2023-01-29T21:25:22.441Z,57.00
2023-01-29T21:28:26.540Z,57.12
2023-01-29T21:31:34.877Z,59.24
2023-01-29T21:34:39.123Z,59.84
2023-01-29T21:41:12.134Z,60.73
2023-01-29T21:44:17.387Z,60.21
2023-01-29T21:47:23.645Z,60.13
2023-01-29T21:53:44.724Z,60.78
2023-01-29T21:56:51.467Z,60.79
2023-01-29T21:59:58.902Z,59.31
2023-01-29T22:03:02.904Z,57.37
2023-01-29T22:06:11.275Z,55.35
2023-01-29T22:09:18.167Z,55.24
2023-01-29T22:15:39.328Z,55.66
2023-01-29T22:18:44.640Z,55.44
2023-01-29T22:21:53.063Z,55.79
2023-01-29T22:25:00.903Z,55.73
2023-01-29T22:28:09.055Z,56.12
2023-01-29T22:34:35.435Z,55.92
2023-01-29T22:51:18.857Z,58.57
2023-01-29T23:01:03.124Z,59.67
2023-01-29T23:30:38.972Z,59.52
2023-01-29T23:40:21.530Z,59.39
2023-01-29T23:43:30.246Z,59.71
2023-01-29T23:53:11.142Z,59.25
2023-01-29T23:59:42.904Z,58.53
